Aérodrome :
LOGIN :

S'inscrire | Disclaimer

   EN    FR    IT 

 










Légende :    VFR   VFR Marginal   IFR   IFR Intensif   IFR Très Intensif
Visi : 
Plafond : 
>= 8 km
>= 3000ft
5 à 8 km
1000 à 3000 ft
1500m à 5 km
500 à 1000 ft
800 à 1500m
200 à 500 ft
< 800m
< 200 ft
Symboles :   Orages  Brouillard  Fortes neiges  Fortes précipitations  Vent > 20 kt
SIGMETs :   Divers  Orages  Givrage  Turbulence  Onde Orograph.  Cendres Volcan.






- Altitude de l'aérodrome : 741 ft
- Code IATA : PED


LKPD - Pardubice AB

DERNIER METAR :
  • 231130Z 24015KT 9999 -RA SCT038 OVC046 09/06 Q1013 NOSIG RMK BLU BLU

METARs EXPIRÉS :
  • 231100Z 24017KT 9999 -RA SCT044 OVC050 09/06 Q1014 NOSIG RMK BLU BLU
  • 231030Z 25017KT 9999 -RA SCT037 OVC044 09/06 Q1015 NOSIG RMK BLU BLU
  • 231000Z 25019KT 9999 -RA FEW033 SCT039 OVC050 09/06 Q1016 NOSIG RMK BLU BLU
  • 230930Z 25017KT 9999 -RA OVC032 09/06 Q1016 NOSIG RMK BLU BLU
  • 230900Z 25018KT 9999 -RA BKN039 BKN070 10/05 Q1016 NOSIG RMK BLU BLU

TAF TAF LKPD
Valide du 23 à 06h jusqu'au 24 à 06h UTC


230500Z 2306/2406 26016KT 9999 BKN035
TEMPO 2306/2401 26020G38KT 6000 RA BKN020
PROB40
TEMPO 2314/2401 28028G54KT
PROB30
TEMPO 2319/2323 3000 SHRA SCT014TCU BKN027
BECMG 2400/2403 29014KT CAVOK



MET'MAP, la Météo Aéronautique d'un coup d'oeil ! - Copyright ORBIFLY Décembre 2007 - Disclaimer

ORBIFLY MET'MAP TEAM :

Programmation & Développement : Alexandra Zaïnal
Sur une idée originale de : Baudouin d'Aumeries
Assistance à la programmation : Marc-Olivier Méhu
Soutien technique & logistique : Manuel Goepfert

Contact : metmap@orbifly.com




SOURCES & CREDITS :

   NOAA